Tienen, Belgium
Current Conditions -  °F | °C
As of 9:25 AM on Sunday 26 Oct 2014 (Local Time) from EBBE Reporting Station
Broken Clouds Broken Clouds  
Wind Chill: 12°   Ceiling: 4200
Heat Index: 12°   Visibility: 6mi
Dew Point: 10°   Wind: 8mph
Humidity: 88%   Direction: 190°S
Pressure: 30.27"   Gusts: NA
Location:  50.81°N, 4.94°E
Report Text: EBBE 260725Z AUTO 19007KT 9999 BKN042/// 12/10 Q1025 BLU
Loading
Personal Weather Stations






























Interactive Weather Map
Tropical Storm Tracking
New forecast layout! Learn more

10-Day Weather Forecast

Advertisements
Track Severe Weather on mobile